Strona główna
METAR-TAF:

METAR-TAF

Lotnisko :

Port lotniczy Larnaka

Larnaka, Cypr

Szerokość geograficzna: 34-53N, Długość geograficzna: 033-38E, wysokość: 2 m

Aktualna obserwacja pogody

Raport powstał 23 minut temu, godzina 02:00 UTC
Wiatr 3 kt od północny zachód
Temperatura 17°C
Wilgotność 82%
Ciśnienie 1011 hPa
Widzialność 10 km lub więcej
Mało chmury na wysokości 2500 ft
Rozproszone chmury na wysokości 3500 ft

METAR: LCLK 040200Z 32003KT 9999 FEW025 SCT035 17/14 Q1011 NOSIG

czas: 05:23 (02:23 UTC)

Prognoza

Raport powstał 2 godziny i 53 minut temu, godzina 23:30 UTC
Prognoza ważna od 04 godzina 00 UTC do 04 godzina 24 UTC
Wiatr 6 kt od zachód
Widzialność 10 km lub więcej
Rozproszone chmury na wysokości 2000 ft
Stopniowe zmiany
od 04 godzina 09 UTC do 04 godzina 12 UTC
Wiatr 17 kt od południowo-południowy zachód
Stopniowe zmiany
od 04 godzina 16 UTC do 04 godzina 19 UTC
Wiatr 8 kt od północny zachód

TAF: LCLK 032330Z 0400/0424 28006KT 9999 SCT020 BECMG 0409/0412 21017KT BECMG 0416/0419 31008KT

Obserwacja i prognoza pogody dla ponad 4000 lotnisk (raport METAR i TAF).

Dostępne stacje oznaczono żółtymi i czerwonymi punktami na mapie.

Najedź kursorem aby zobaczyć nazwę stacji.

Kliknij aby zobaczyć obserwacje i prognozy pogody.

Aby zmienić mapę: kliknij na zielony przycisk z czarnym krzyżykiem, aby powiększyć; na zielony przycisk z myślnikiem, aby pomniejszyć; na zielone strzałki, aby przejść do map sąsiednich.


METAR-TAF: